Friday, April 20, 2018, 10:22 AM GMT
Back to Local

CZBF, Bathurst Airport Aviation Weather Reporting Station

Location: , , Canada Lat: 47.633
Local Time: 10:22 AM GMT (10:22 GMT) Lon: -65.75
Time Zone: GMT Elev: 193 ft

Show me the last for .
Show Coded

Time T Td Feel RH Dir Speed Gust Alt SLP Vis Weather Sky Remarks
2018-04-20 10:00 32 32 26 100 20° 6 - 29.79 29.80 1 -SN BR VV004 None
2018-04-20 09:50 32 32 26 100 30° 7 - 29.78 29.79 8 -SN OVC015 None
2018-04-20 09:25 32 32 26 100 20° 7 - 29.77 29.78 6 -RASN BR OVC013 None
2018-04-20 09:00 32 32 26 100 20° 6 - 29.76 29.77 5 -SN BR OVC015 None
2018-04-20 08:11 32 32 27 100 10° 5 - 29.76 29.77 8 -RASN FEW008 OVC016 None
2018-04-20 08:05 32 32 27 100 20° 5 - 29.76 29.77 2 -RASN BR OVC020 None
2018-04-20 08:00 32 32 29 100 10° 3 - 29.76 29.77 2 -SN BR BKN020 None
2018-04-20 07:20 32 30 - 92 Variable 2 - 29.76 29.77 2 -SN BR OVC020 None
2018-04-20 07:00 32 30 - 92 - Calm - 29.76 29.77 3 -SN OVC020 None
2018-04-20 06:11 32 30 - 92 - Calm - 29.76 29.77 10 -SN OVC020 None
2018-04-20 06:00 32 30 - 92 - Calm - 29.75 29.77 10 FEW005 OVC022 None
2018-04-20 05:47 32 30 - 92 340° 2 - 29.75 29.77 10 FEW005 OVC022 None
2018-04-20 05:00 30 30 - 100 - Calm - 29.75 29.77 15 FEW015 BKN040 None
2018-04-20 04:31 30 30 27 100 10° 3 - 29.75 29.77 12 BKN040 None
2018-04-20 04:03 30 30 24 100 10° 6 - 29.75 29.76 12 -SN BKN040 None
2018-04-20 04:00 30 30 24 100 10° 6 - 29.75 29.76 12 BKN040 None
2018-04-20 03:38 32 30 27 92 360° 5 - 29.76 29.77 12 BKN040 None
2018-04-20 03:00 32 30 27 92 20° 5 - 29.77 29.78 10 -SN OVC040 None
2018-04-20 02:53 32 30 27 92 20° 5 - 29.77 29.78 10 -SN OVC040 None
2018-04-20 02:00 32 30 26 92 20° 6 - 29.77 29.78 10 OVC040 None
2018-04-20 01:00 34 32 30 93 20° 5 - 29.77 29.77 10 FEW012 BKN040 None
2018-04-20 00:40 36 32 32 86 40° 5 - 29.76 29.77 8 FEW012 OVC040 None
2018-04-20 00:00 - - - 0 40° 2 - - - 10 -RA SCT010 OVC040 None
2018-04-19 23:00 36 32 28 86 100° 10 - 29.74 29.75 15 -RA FEW010 OVC040 None
2018-04-19 22:00 39 32 35 75 70° 6 - 29.71 29.72 15 BKN040 BKN080 None
2018-04-19 21:00 39 30 35 69 80° 6 - 29.68 29.70 15 BKN040 None
2018-04-19 20:00 41 28 37 60 80° 6 - 29.69 29.70 15 BKN040 None
2018-04-19 19:00 43 30 39 60 60° 7 - 29.67 29.68 15 BKN040 BKN220 None
2018-04-19 18:00 41 30 38 65 70° 5 - 29.68 29.69 15 FEW025 BKN040 BKN220 None
2018-04-19 17:00 41 30 36 65 80° 7 - 29.66 29.67 15 SCT025 BKN050 None
2018-04-19 16:00 39 30 34 69 40° 7 - 29.65 29.66 15 BKN025 None
2018-04-19 15:00 41 30 35 65 60° 9 - 29.64 29.65 15 BKN025 None
2018-04-19 14:00 43 28 39 56 300° 7 - 29.63 29.64 15 BKN025 None
2018-04-19 13:00 41 30 39 65 210° 3 - 29.61 29.62 15 FEW030 SCT140 BKN220 None
2018-04-19 12:00 37 30 35 74 230° 3 - 29.60 29.61 15 FEW050 BKN120 None
2018-04-19 11:00 34 30 31 86 160° 3 - 29.57 29.58 15 BKN050 None

Support USWX by starting your Amazon purchase here.